Time;durP1;ratioP1;P1;durP2;ratioP2;P2;SDS_P1;SDS_P2;PMS_P1;PMS_P2;Temp;Humidity;BMP_temperature;BMP_pressure;BME280_temperature;BME280_humidity;BME280_pressure;Samples;Min_cycle;Max_cycle;Signal;HPM_P1;HPM_P2
2021/07/01 00:01:53;;;;;;;3.13;1.30;;;;;;;25.43;33.87;99936.81;5055481;28;20073;-38
2021/07/01 00:04:22;;;;;;;5.10;1.42;;;;;;;25.50;33.64;99936.91;5066142;28;20437;-37
2021/07/01 00:06:49;;;;;;;2.50;0.80;;;;;;;25.48;33.54;99937.09;5075265;28;20036;-37
2021/07/01 00:09:18;;;;;;;3.08;1.38;;;;;;;25.47;33.68;99946.13;5075007;28;20429;-38
2021/07/01 00:11:50;;;;;;;3.25;0.68;;;;;;;25.45;33.62;99948.13;5075143;28;20049;-39
2021/07/01 00:14:18;;;;;;;4.70;1.10;;;;;;;25.46;33.76;99949.81;5075322;28;20422;-37
2021/07/01 00:16:50;;;;;;;1.60;0.75;;;;;;;25.42;33.60;99948.50;5075016;28;20036;-38
2021/07/01 00:19:19;;;;;;;1.77;1.05;;;;;;;25.43;33.80;99936.81;5074660;28;20053;-37
2021/07/01 00:21:46;;;;;;;1.20;0.80;;;;;;;25.35;33.60;99936.88;5075367;28;20098;-38
2021/07/01 00:24:14;;;;;;;2.90;1.40;;;;;;;25.38;33.82;99941.03;5074548;28;20044;-37
2021/07/01 00:26:41;;;;;;;2.25;1.10;;;;;;;25.44;33.58;99938.47;5075207;28;20036;-38
2021/07/01 00:29:08;;;;;;;1.58;0.80;;;;;;;25.38;33.68;99941.03;5074621;28;20415;-38
2021/07/01 00:31:35;;;;;;;5.30;1.10;;;;;;;25.39;33.69;99943.50;5074906;28;20037;-35
2021/07/01 00:34:02;;;;;;;2.42;0.90;;;;;;;25.29;33.72;99941.09;5074265;28;20075;-38
2021/07/01 00:36:30;;;;;;;3.33;1.40;;;;;;;25.37;33.77;99942.88;5074652;28;20045;-38
2021/07/01 00:38:57;;;;;;;1.50;1.00;;;;;;;25.33;33.70;99944.25;5056800;28;20131;-38
2021/07/01 00:41:24;;;;;;;1.63;0.90;;;;;;;25.41;33.60;99946.84;5056233;28;20040;-37
2021/07/01 00:43:51;;;;;;;2.25;1.38;;;;;;;25.37;33.70;99947.38;5074531;28;20044;-38
2021/07/01 00:46:18;;;;;;;1.92;0.80;;;;;;;25.36;33.76;99948.41;5074355;28;20433;-36
2021/07/01 00:48:46;;;;;;;1.85;1.05;;;;;;;25.31;33.86;99944.44;5056194;28;20040;-37
2021/07/01 00:51:13;;;;;;;3.33;1.40;;;;;;;25.39;33.61;99950.69;5074328;28;20408;-38
2021/07/01 00:53:41;;;;;;;2.47;1.20;;;;;;;25.39;33.73;99964.84;5074212;28;20052;-38
2021/07/01 00:56:09;;;;;;;2.25;0.88;;;;;;;25.37;33.67;99966.06;5056631;28;20044;-38
2021/07/01 00:58:37;;;;;;;2.47;1.23;;;;;;;25.36;33.60;99954.56;5074351;28;20062;-38
2021/07/01 01:01:05;;;;;;;0.95;0.70;;;;;;;25.36;33.58;99964.41;5074161;28;20045;-38
2021/07/01 01:03:35;;;;;;;2.15;0.77;;;;;;;25.37;33.68;99966.06;5074074;28;20376;-38
2021/07/01 01:06:08;;;;;;;1.92;1.00;;;;;;;25.31;33.58;99963.09;5056089;28;20044;-38
2021/07/01 01:08:41;;;;;;;0.82;0.68;;;;;;;25.31;33.43;99962.28;5055894;28;20037;-37
2021/07/01 01:11:09;;;;;;;1.77;1.05;;;;;;;25.34;33.73;99972.56;5056119;28;20044;-37
2021/07/01 01:13:36;;;;;;;3.00;1.02;;;;;;;25.30;33.61;99969.44;5073925;28;20549;-38
2021/07/01 01:16:25;;;;;;;1.13;0.85;;;;;;;25.30;33.58;99971.25;5070717;28;20048;-39
2021/07/01 01:18:53;;;;;;;2.17;0.82;;;;;;;25.33;33.48;99968.25;5073259;28;20040;-38
2021/07/01 01:21:26;;;;;;;1.85;0.98;;;;;;;25.36;33.42;99970.56;5056021;28;20443;-38
2021/07/01 01:23:55;;;;;;;3.63;1.00;;;;;;;25.40;33.25;99968.34;5055556;28;20053;-38
2021/07/01 01:26:23;;;;;;;1.92;0.80;;;;;;;25.40;33.34;99977.19;5073559;28;20033;-37
2021/07/01 01:28:51;;;;;;;1.05;1.02;;;;;;;25.35;33.08;99976.88;5073273;28;20041;-34
2021/07/01 01:31:19;;;;;;;2.38;0.90;;;;;;;25.33;33.14;99977.09;5074045;28;20421;-35
2021/07/01 01:33:50;;;;;;;1.88;0.65;;;;;;;25.33;33.06;99971.75;5055032;28;20467;-38
2021/07/01 01:36:17;;;;;;;1.52;0.80;;;;;;;25.31;33.07;99978.28;5073758;28;20521;-38
2021/07/01 01:38:47;;;;;;;3.10;0.90;;;;;;;25.33;32.93;99986.94;5055518;28;20102;-38
2021/07/01 01:41:46;;;;;;;2.55;1.23;;;;;;;25.27;33.59;99990.31;5053958;28;20090;-38
2021/07/01 01:44:13;;;;;;;2.85;1.08;;;;;;;25.24;33.67;99985.31;5073268;28;20109;-38
2021/07/01 01:46:41;;;;;;;2.15;0.75;;;;;;;25.25;33.79;99984.34;5055255;28;20076;-35
2021/07/01 01:49:09;;;;;;;1.92;1.20;;;;;;;25.27;34.17;99992.97;5073259;28;20153;-34
2021/07/01 01:51:38;;;;;;;1.27;1.05;;;;;;;25.22;34.44;99993.50;5073032;28;20049;-38
2021/07/01 01:54:06;;;;;;;1.52;0.80;;;;;;;25.28;34.47;99991.97;5055274;28;20041;-35
2021/07/01 01:56:37;;;;;;;1.33;1.05;;;;;;;25.23;34.61;99986.31;5072816;28;20044;-38
2021/07/01 01:59:16;;;;;;;5.72;1.02;;;;;;;25.26;34.68;99984.16;5055244;28;20113;-38
2021/07/01 02:02:01;;;;;;;5.25;1.42;;;;;;;25.25;34.96;99987.81;5073225;28;20121;-38
2021/07/01 02:04:51;;;;;;;1.20;0.68;;;;;;;25.30;34.84;99987.28;5070713;28;20044;-38
2021/07/01 02:07:18;;;;;;;3.00;0.90;;;;;;;25.22;35.00;99984.69;5072544;28;20044;-36
2021/07/01 02:10:11;;;;;;;3.15;1.35;;;;;;;25.29;35.11;99983.78;5064755;28;20380;-35
2021/07/01 02:12:39;;;;;;;3.80;1.15;;;;;;;25.24;35.21;99982.66;5072851;28;20056;-36
2021/07/01 02:15:10;;;;;;;1.55;0.85;;;;;;;25.30;35.18;99981.94;5054953;28;20127;-38
2021/07/01 02:17:47;;;;;;;2.75;1.02;;;;;;;25.29;35.32;99982.94;5054459;28;20498;-37
2021/07/01 02:20:17;;;;;;;3.78;1.08;;;;;;;25.22;35.60;99979.34;5072768;28;20048;-39
2021/07/01 02:22:46;;;;;;;2.55;1.15;;;;;;;25.19;35.43;99979.69;5054745;28;20076;-36
2021/07/01 02:25:15;;;;;;;2.40;0.90;;;;;;;25.19;35.84;99979.69;5054993;28;20041;-38
2021/07/01 02:27:56;;;;;;;1.05;0.88;;;;;;;25.20;35.61;99976.88;5054104;28;20037;-37
2021/07/01 02:30:23;;;;;;;2.28;0.80;;;;;;;25.21;35.74;99977.69;5054887;28;20131;-38
2021/07/01 02:32:51;;;;;;;2.45;0.70;;;;;;;25.21;35.94;99983.03;5054165;28;20044;-37
2021/07/01 02:35:32;;;;;;;1.65;1.10;;;;;;;25.23;35.92;99991.66;5063642;28;20101;-36
2021/07/01 02:38:19;;;;;;;2.55;1.05;;;;;;;25.29;35.83;99985.63;5072752;28;20510;-37
2021/07/01 02:40:53;;;;;;;1.05;0.95;;;;;;;25.23;35.94;99981.00;5054887;28;20518;-38
2021/07/01 02:43:28;;;;;;;5.55;0.90;;;;;;;25.17;36.17;99971.88;5054421;28;20048;-36
2021/07/01 02:46:13;;;;;;;0.85;0.68;;;;;;;25.19;36.27;99969.00;5072780;28;20051;-38
2021/07/01 02:48:41;;;;;;;5.25;1.17;;;;;;;25.20;36.12;99979.53;5072351;28;20127;-37
2021/07/01 02:51:08;;;;;;;3.05;1.30;;;;;;;25.19;36.15;99980.50;5054506;28;20051;-38
2021/07/01 02:53:46;;;;;;;2.90;1.27;;;;;;;25.20;36.34;99981.38;5054624;28;20041;-38
2021/07/01 02:56:13;;;;;;;2.15;0.90;;;;;;;25.20;36.43;99984.03;5054213;28;20067;-36
2021/07/01 02:58:40;;;;;;;2.97;0.90;;;;;;;25.15;36.70;99987.22;5054168;28;20495;-38
2021/07/01 03:01:33;;;;;;;1.45;0.80;;;;;;;25.15;36.41;99981.91;5072234;28;20048;-35
2021/07/01 03:04:20;;;;;;;2.38;1.00;;;;;;;25.16;36.49;99985.38;5054524;28;20076;-37
2021/07/01 03:06:47;;;;;;;2.70;0.88;;;;;;;25.17;36.67;99987.03;5054024;28;20408;-38
2021/07/01 03:09:14;;;;;;;1.55;0.90;;;;;;;25.14;36.60;99985.56;5054559;28;20047;-38
2021/07/01 03:11:42;;;;;;;6.05;0.77;;;;;;;25.16;36.70;99990.72;5072067;28;20040;-36
2021/07/01 03:14:09;;;;;;;2.35;0.77;;;;;;;25.11;36.87;99985.09;5072221;28;20566;-38
2021/07/01 03:16:36;;;;;;;2.30;0.60;;;;;;;25.15;36.73;99992.56;5071985;28;20037;-38
2021/07/01 03:19:03;;;;;;;1.67;1.00;;;;;;;25.23;36.60;99995.16;5072324;28;20041;-37
2021/07/01 03:21:49;;;;;;;3.08;1.15;;;;;;;25.19;36.65;99993.84;5072305;28;20404;-37
2021/07/01 03:24:16;;;;;;;1.35;1.05;;;;;;;25.15;36.68;99991.75;5072156;28;20120;-38
2021/07/01 03:26:43;;;;;;;1.50;0.90;;;;;;;25.16;36.91;99994.22;5067570;28;20039;-34
2021/07/01 03:29:12;;;;;;;1.50;0.73;;;;;;;25.15;36.85;99989.06;5054249;28;20048;-36
2021/07/01 03:31:39;;;;;;;2.67;1.17;;;;;;;25.14;36.98;99982.91;5071919;28;20056;-38
2021/07/01 03:34:06;;;;;;;2.15;0.98;;;;;;;25.11;37.01;99982.41;5071714;28;20044;-38
2021/07/01 03:36:34;;;;;;;1.02;0.93;;;;;;;25.14;36.94;99982.06;5054279;28;20440;-38
2021/07/01 03:39:25;;;;;;;1.35;0.77;;;;;;;25.17;36.93;99981.72;5073108;28;20041;-34
2021/07/01 03:42:02;;;;;;;2.45;1.17;;;;;;;25.14;37.04;99972.25;5075849;28;20516;-37
2021/07/01 03:44:29;;;;;;;1.58;0.70;;;;;;;25.19;36.92;99969.84;5075674;28;20067;-37
2021/07/01 03:46:56;;;;;;;4.35;1.13;;;;;;;25.16;36.89;99969.38;5075570;28;20119;-38
2021/07/01 03:49:23;;;;;;;2.42;0.75;;;;;;;25.18;37.06;99967.34;5057166;28;20128;-36
2021/07/01 03:52:09;;;;;;;3.50;0.70;;;;;;;25.11;37.10;99966.41;5075668;28;20051;-38
2021/07/01 03:54:42;;;;;;;1.13;0.88;;;;;;;25.14;37.25;99974.91;5057305;28;20494;-36
2021/07/01 03:57:11;;;;;;;1.15;0.82;;;;;;;25.18;36.99;99975.38;5075579;28;20496;-38
2021/07/01 03:59:48;;;;;;;1.42;1.00;;;;;;;25.16;36.98;99982.72;5075285;28;20056;-38
2021/07/01 04:02:47;;;;;;;1.02;0.80;;;;;;;25.19;37.15;99988.50;5075192;28;20048;-38
2021/07/01 04:05:17;;;;;;;3.40;1.08;;;;;;;25.13;37.32;99991.06;5057198;28;20040;-38
2021/07/01 04:07:47;;;;;;;1.05;0.60;;;;;;;25.17;37.24;99987.03;5075172;28;20123;-38
2021/07/01 04:10:17;;;;;;;2.75;0.85;;;;;;;25.14;37.17;99998.06;5056861;28;20123;-38
2021/07/01 04:12:49;;;;;;;0.85;0.80;;;;;;;25.16;37.29;99998.72;5075216;28;20127;-38
2021/07/01 04:15:22;;;;;;;3.75;1.00;;;;;;;25.18;37.14;99994.03;5074694;28;20083;-38
2021/07/01 04:18:09;;;;;;;3.05;1.02;;;;;;;25.14;37.27;100000.72;5075717;28;20056;-37
2021/07/01 04:20:55;;;;;;;0.98;0.70;;;;;;;25.10;37.35;99999.44;5075035;28;20132;-38
2021/07/01 04:23:40;;;;;;;1.27;0.80;;;;;;;25.11;37.34;99999.25;5055003;28;20095;-38
2021/07/01 04:26:26;;;;;;;2.15;1.00;;;;;;;25.13;37.25;99991.88;5054688;28;20134;-37
2021/07/01 04:28:54;;;;;;;1.65;0.95;;;;;;;25.08;37.44;99994.25;5046593;28;20049;-36
2021/07/01 04:31:22;;;;;;;1.02;0.90;;;;;;;25.06;37.29;99990.94;5056646;28;20040;-38
2021/07/01 04:33:56;;;;;;;1.10;0.73;;;;;;;25.11;37.28;99999.25;5056382;28;20106;-37
2021/07/01 04:36:24;;;;;;;5.13;1.58;;;;;;;25.10;37.43;99997.59;5056276;28;20102;-38
2021/07/01 04:38:52;;;;;;;1.20;0.95;;;;;;;25.15;37.18;100007.75;5045867;28;20087;-37
2021/07/01 04:41:22;;;;;;;2.08;0.90;;;;;;;25.12;37.20;100010.75;5048691;28;20075;-38
2021/07/01 04:43:52;;;;;;;1.67;0.95;;;;;;;25.10;37.46;100010.94;5056026;28;20035;-37
2021/07/01 04:46:23;;;;;;;1.50;0.82;;;;;;;25.10;37.54;100002.09;5056080;28;20037;-36
2021/07/01 04:48:53;;;;;;;2.30;1.25;;;;;;;25.14;37.31;100000.72;5056031;28;20411;-36
2021/07/01 04:51:21;;;;;;;3.05;1.00;;;;;;;25.12;37.41;99997.41;5073982;28;20045;-38
2021/07/01 04:54:07;;;;;;;1.98;0.60;;;;;;;25.07;37.75;99998.75;5074059;28;20059;-37
2021/07/01 04:56:52;;;;;;;1.30;0.77;;;;;;;25.07;37.57;100003.28;5072510;28;20051;-40
2021/07/01 04:59:21;;;;;;;3.38;1.25;;;;;;;25.19;37.41;100009.03;5073539;28;20053;-38
2021/07/01 05:02:08;;;;;;;1.85;0.90;;;;;;;25.15;37.36;100013.06;5027151;28;20384;-36
2021/07/01 05:05:04;;;;;;;2.30;1.05;;;;;;;25.17;37.54;100008.38;5055500;28;20503;-38
2021/07/01 05:07:31;;;;;;;1.13;0.90;;;;;;;25.15;37.48;100007.75;5073829;28;20044;-38
2021/07/01 05:09:59;;;;;;;0.68;0.68;;;;;;;25.13;37.51;100013.22;5055133;28;20055;-37
2021/07/01 05:12:47;;;;;;;1.05;0.82;;;;;;;25.19;37.49;100011.69;5073066;28;20036;-38
2021/07/01 05:15:15;;;;;;;0.70;0.70;;;;;;;25.17;37.46;100008.38;5055171;28;20041;-38
2021/07/01 05:17:42;;;;;;;2.65;1.50;;;;;;;25.13;37.54;100012.41;5055449;28;20463;-38
2021/07/01 05:20:10;;;;;;;1.23;0.70;;;;;;;25.21;37.70;100017.69;5073015;28;20041;-37
2021/07/01 05:22:56;;;;;;;1.25;0.90;;;;;;;25.21;37.49;100020.38;5073669;28;20051;-38
2021/07/01 05:25:44;;;;;;;1.23;0.70;;;;;;;25.20;37.50;100022.22;5022828;28;20096;-38
2021/07/01 05:28:29;;;;;;;1.73;1.13;;;;;;;25.21;37.55;100021.19;5054030;28;20514;-38
2021/07/01 05:31:14;;;;;;;1.30;1.15;;;;;;;25.19;37.71;100022.38;5059221;28;20121;-35
2021/07/01 05:34:01;;;;;;;2.50;0.95;;;;;;;25.17;37.70;100014.53;5073568;28;20615;-36
2021/07/01 05:36:29;;;;;;;1.80;1.00;;;;;;;25.27;37.64;100017.00;5055271;28;20106;-37
2021/07/01 05:39:04;;;;;;;;;;;;;;;25.17;37.73;100014.53;5055898;28;20040;-38
2021/07/01 05:41:33;;;;;;;2.75;0.65;;;;;;;25.24;37.73;100015.50;5071850;28;20309;-39
2021/07/01 05:44:03;;;;;;;1.83;0.90;;;;;;;25.24;37.69;100025.31;5073429;28;20044;-37
2021/07/01 05:46:45;;;;;;;2.88;1.25;;;;;;;25.19;37.84;100019.69;5055205;28;20117;-37
2021/07/01 05:49:13;;;;;;;1.75;0.80;;;;;;;25.22;37.97;100024.69;5073317;28;20394;-37
2021/07/01 05:51:41;;;;;;;1.83;0.98;;;;;;;25.23;37.66;100023.69;5072728;28;20494;-38
2021/07/01 05:54:14;;;;;;;1.02;0.75;;;;;;;25.24;37.71;100025.31;5073386;28;20040;-37
2021/07/01 05:56:45;;;;;;;0.60;0.60;;;;;;;25.25;37.62;100024.34;5055149;28;20188;-35
2021/07/01 05:59:12;;;;;;;1.00;0.70;;;;;;;25.27;37.65;100027.66;5072864;28;20036;-38
2021/07/01 06:01:40;;;;;;;0.95;0.90;;;;;;;25.27;37.82;100020.47;5073000;28;20425;-36
2021/07/01 06:04:08;;;;;;;1.45;0.90;;;;;;;25.27;37.79;100027.66;5072915;28;20047;-37
2021/07/01 06:07:08;;;;;;;1.55;0.60;;;;;;;25.22;37.94;100030.84;5032630;28;20487;-38
2021/07/01 06:09:38;;;;;;;2.33;0.80;;;;;;;25.23;37.88;100035.16;5054856;28;20052;-38
2021/07/01 06:12:05;;;;;;;0.90;0.70;;;;;;;25.25;37.88;100040.34;5073241;28;20449;-37
2021/07/01 06:14:33;;;;;;;0.82;0.82;;;;;;;25.25;38.03;100045.69;5072654;28;20075;-38
2021/07/01 06:17:03;;;;;;;1.75;0.90;;;;;;;25.22;38.06;100038.03;5054850;28;20041;-36
2021/07/01 06:19:30;;;;;;;1.05;0.60;;;;;;;25.24;37.75;100036.81;5072535;28;20048;-36
2021/07/01 06:21:57;;;;;;;1.13;0.80;;;;;;;25.23;37.94;100031.69;5072634;28;20090;-38
2021/07/01 06:24:28;;;;;;;1.25;1.05;;;;;;;25.23;38.08;100031.69;5072663;28;20101;-37
2021/07/01 06:27:00;;;;;;;0.65;0.60;;;;;;;25.22;38.09;100032.69;5072794;28;20049;-38
2021/07/01 06:29:27;;;;;;;0.88;0.63;;;;;;;25.24;38.25;100044.00;5072717;28;20085;-37
2021/07/01 06:31:54;;;;;;;1.42;0.90;;;;;;;25.25;38.23;100043.03;5072934;28;20130;-38
2021/07/01 06:34:21;;;;;;;0.80;0.70;;;;;;;25.28;38.04;100043.47;5072338;28;20063;-37
2021/07/01 06:36:50;;;;;;;2.10;0.90;;;;;;;25.29;38.14;100042.47;5072476;28;20071;-38
2021/07/01 06:39:43;;;;;;;0.80;0.73;;;;;;;25.30;38.12;100046.81;5026025;28;20044;-37
2021/07/01 06:42:30;;;;;;;2.25;1.00;;;;;;;25.33;37.87;100038.44;5057567;28;20051;-37
2021/07/01 06:45:17;;;;;;;0.93;0.80;;;;;;;25.39;37.87;100038.75;5072892;28;20063;-37
2021/07/01 06:48:03;;;;;;;2.47;1.42;;;;;;;25.37;37.99;100046.94;5072886;28;20051;-37
2021/07/01 06:50:56;;;;;;;2.33;0.90;;;;;;;25.35;38.02;100038.25;5057437;28;20047;-38
2021/07/01 06:53:55;;;;;;;1.95;0.77;;;;;;;25.36;38.03;100047.13;5017589;28;20052;-33
2021/07/01 06:56:52;;;;;;;0.88;0.80;;;;;;;25.30;38.08;100038.81;5071975;28;20044;-35
2021/07/01 06:59:22;;;;;;;3.50;1.08;;;;;;;25.29;38.17;100044.31;5072755;28;20411;-38
2021/07/01 07:01:50;;;;;;;1.10;0.80;;;;;;;25.31;38.15;100047.66;5072394;28;20045;-37
2021/07/01 07:04:18;;;;;;;1.65;0.57;;;;;;;25.35;38.30;100046.25;5072372;28;20106;-38
2021/07/01 07:06:47;;;;;;;0.88;0.75;;;;;;;25.34;38.27;100044.59;5072092;28;20044;-38
2021/07/01 07:09:15;;;;;;;0.68;0.68;;;;;;;25.33;38.18;100035.78;5072095;28;20041;-37
2021/07/01 07:11:43;;;;;;;0.90;0.60;;;;;;;25.37;38.27;100041.59;5072702;28;20106;-38
2021/07/01 07:14:11;;;;;;;1.30;0.93;;;;;;;25.38;38.25;100045.09;5073404;28;20048;-37
2021/07/01 07:16:40;;;;;;;1.98;0.80;;;;;;;25.45;38.02;100041.53;5076116;28;20044;-38
2021/07/01 07:19:09;;;;;;;1.23;0.73;;;;;;;25.39;38.07;100036.91;5075794;28;20040;-37
2021/07/01 07:21:46;;;;;;;0.77;0.60;;;;;;;25.41;38.09;100042.06;5076021;28;20491;-38
2021/07/01 07:24:16;;;;;;;0.77;0.70;;;;;;;25.43;38.05;100035.53;5075692;28;20056;-36
2021/07/01 07:26:50;;;;;;;1.73;0.80;;;;;;;25.44;37.95;100041.72;5076417;28;20047;-37
2021/07/01 07:29:34;;;;;;;1.48;0.80;;;;;;;25.41;38.21;100037.56;5075904;28;20051;-36
2021/07/01 07:32:05;;;;;;;0.95;0.85;;;;;;;25.41;38.27;100034.91;5076067;28;20048;-37
2021/07/01 07:34:33;;;;;;;0.75;0.70;;;;;;;25.41;38.14;100026.91;5075446;28;20079;-38
2021/07/01 07:37:01;;;;;;;0.98;0.73;;;;;;;25.39;38.26;100039.56;5075611;28;20068;-39
2021/07/01 07:39:31;;;;;;;1.33;0.80;;;;;;;25.37;38.18;100036.25;5075487;28;20494;-38
2021/07/01 07:42:00;;;;;;;1.15;0.93;;;;;;;25.40;38.26;100035.06;5075494;28;20052;-38
2021/07/01 07:44:27;;;;;;;2.00;1.02;;;;;;;25.34;38.28;100037.44;5075653;28;20047;-37
2021/07/01 07:46:54;;;;;;;2.25;0.70;;;;;;;25.32;38.48;100033.28;5075205;28;20131;-36
2021/07/01 07:49:21;;;;;;;0.68;0.60;;;;;;;25.36;38.32;100029.28;5075819;28;20087;-37
2021/07/01 07:51:51;;;;;;;1.13;0.70;;;;;;;25.38;38.44;100029.09;5075549;28;20094;-37
2021/07/01 07:54:23;;;;;;;1.98;1.00;;;;;;;25.38;38.32;100029.91;5075554;28;20050;-38
2021/07/01 07:56:54;;;;;;;3.28;0.90;;;;;;;25.42;38.24;100027.72;5055348;28;20432;-38
2021/07/01 07:59:28;;;;;;;1.30;0.95;;;;;;;25.43;38.23;100029.38;5072672;28;20052;-37
2021/07/01 08:02:00;;;;;;;0.90;0.80;;;;;;;25.39;38.44;100018.22;5075142;28;20045;-36
2021/07/01 08:04:29;;;;;;;1.92;1.38;;;;;;;25.42;38.22;100028.56;5075190;28;20094;-37
2021/07/01 08:06:57;;;;;;;1.58;1.10;;;;;;;25.36;38.53;100029.28;5074913;28;20041;-37
2021/07/01 08:09:29;;;;;;;1.63;0.70;;;;;;;25.42;38.29;100025.06;5075143;28;20071;-38
2021/07/01 08:11:58;;;;;;;1.02;0.80;;;;;;;25.40;38.42;100024.38;5074933;28;20071;-37
2021/07/01 08:14:25;;;;;;;0.90;0.70;;;;;;;25.42;38.49;100031.22;5075191;28;20068;-38
2021/07/01 08:16:52;;;;;;;0.65;0.60;;;;;;;25.42;38.33;100017.88;5074627;28;20036;-37
2021/07/01 08:19:19;;;;;;;2.40;1.38;;;;;;;25.41;38.53;100020.72;5075257;28;20040;-36
2021/07/01 08:21:47;;;;;;;1.23;0.90;;;;;;;25.33;38.46;100018.94;5074980;28;20040;-38
2021/07/01 08:24:14;;;;;;;1.88;1.17;;;;;;;25.40;38.37;100021.72;5074655;28;20078;-37
2021/07/01 08:26:43;;;;;;;3.10;0.77;;;;;;;25.37;38.21;100019.44;5074330;28;20131;-38
2021/07/01 08:29:11;;;;;;;0.93;0.77;;;;;;;25.30;37.98;100014.81;5074683;28;20379;-38
2021/07/01 08:31:42;;;;;;;1.98;1.00;;;;;;;25.33;37.72;100009.09;5074968;28;20051;-38
2021/07/01 08:34:10;;;;;;;0.95;0.80;;;;;;;25.29;37.75;100013.13;5068439;28;20131;-37
2021/07/01 08:36:41;;;;;;;1.90;1.25;;;;;;;25.28;37.62;100016.81;5074671;28;20098;-37
2021/07/01 08:39:08;;;;;;;2.80;1.17;;;;;;;25.30;37.44;100013.94;5074324;28;20119;-38
2021/07/01 08:41:41;;;;;;;2.35;1.15;;;;;;;25.30;37.24;100013.94;5074396;28;20517;-37
2021/07/01 08:44:13;;;;;;;2.53;0.93;;;;;;;25.27;37.48;100015.16;5074326;28;20133;-38
2021/07/01 08:46:48;;;;;;;1.63;1.20;;;;;;;25.32;37.03;100022.63;5074671;28;20040;-38
2021/07/01 08:49:32;;;;;;;1.77;1.15;;;;;;;25.27;37.43;100015.16;5074413;28;20040;-38
2021/07/01 08:52:05;;;;;;;1.48;0.75;;;;;;;25.30;37.10;100021.94;5074425;28;20564;-38
2021/07/01 08:54:36;;;;;;;1.35;1.05;;;;;;;25.26;37.16;100012.66;5073812;28;20491;-33
2021/07/01 08:57:11;;;;;;;1.08;0.95;;;;;;;25.25;37.01;100014.50;5074339;28;20449;-34
2021/07/01 08:59:43;;;;;;;1.33;0.93;;;;;;;25.37;36.93;100016.75;5074212;28;20120;-34
2021/07/01 09:02:12;;;;;;;2.83;0.90;;;;;;;25.31;36.82;100012.97;5074189;28;20052;-38
2021/07/01 09:04:54;;;;;;;1.40;0.90;;;;;;;25.31;36.69;100015.63;5074146;28;20040;-37
2021/07/01 09:07:24;;;;;;;0.95;0.60;;;;;;;25.24;36.94;100018.16;5074260;28;20056;-36
2021/07/01 09:10:04;;;;;;;0.98;0.70;;;;;;;25.27;36.77;100011.66;5074042;28;20455;-37
2021/07/01 09:12:33;;;;;;;1.25;0.90;;;;;;;25.28;36.58;100011.47;5074039;28;20181;-38
2021/07/01 09:15:04;;;;;;;1.23;0.82;;;;;;;25.30;36.56;100008.59;5074211;28;20049;-36
2021/07/01 09:17:34;;;;;;;1.40;0.88;;;;;;;25.26;36.74;100013.50;5071959;28;20049;-37
2021/07/01 09:20:08;;;;;;;1.27;0.98;;;;;;;25.29;36.54;100012.28;5073960;28;20045;-36
2021/07/01 09:22:35;;;;;;;2.70;0.90;;;;;;;25.26;36.44;100016.16;5073502;28;20044;-38
2021/07/01 09:25:03;;;;;;;1.42;0.70;;;;;;;25.32;36.42;100022.63;5073409;28;20490;-38
2021/07/01 09:27:30;;;;;;;2.20;0.85;;;;;;;25.33;36.25;100013.59;5073701;28;20063;-38
2021/07/01 09:30:01;;;;;;;1.15;0.90;;;;;;;25.28;36.48;100021.31;5073736;28;20041;-38
2021/07/01 09:32:30;;;;;;;1.00;0.80;;;;;;;25.31;36.48;100010.28;5072796;28;20832;-36
2021/07/01 09:34:57;;;;;;;1.02;0.70;;;;;;;25.40;36.14;100019.88;5073752;28;20430;-31
2021/07/01 09:37:37;;;;;;;1.35;1.20;;;;;;;25.30;36.36;100024.63;5072596;28;20049;-34
2021/07/01 09:40:08;;;;;;;0.77;0.75;;;;;;;25.37;36.09;100024.75;5073271;28;20044;-38
2021/07/01 09:42:35;;;;;;;4.35;0.98;;;;;;;25.35;36.23;100022.25;5073492;28;20086;-37
2021/07/01 09:45:11;;;;;;;1.63;1.00;;;;;;;25.29;36.42;100025.63;5073089;28;20064;-38
2021/07/01 09:47:43;;;;;;;1.15;0.80;;;;;;;25.32;36.34;100015.44;5073266;28;20070;-37
2021/07/01 09:50:11;;;;;;;1.13;0.77;;;;;;;25.33;36.24;100013.59;5072988;28;20052;-38
2021/07/01 09:52:43;;;;;;;1.67;1.20;;;;;;;25.32;36.28;100015.44;5072988;28;20045;-38
2021/07/01 09:55:12;;;;;;;0.90;0.82;;;;;;;25.31;36.24;100011.13;5073002;28;20036;-37
2021/07/01 09:57:44;;;;;;;1.20;0.95;;;;;;;25.32;36.38;100011.94;5072859;28;20082;-30
2021/07/01 10:00:12;;;;;;;0.75;0.73;;;;;;;25.36;36.21;100010.59;5072730;28;20113;-33
2021/07/01 10:02:40;;;;;;;1.58;0.98;;;;;;;25.38;36.21;100005.06;5055619;28;20044;-37
2021/07/01 10:05:28;;;;;;;2.75;1.67;;;;;;;25.34;36.12;100009.91;5072772;28;20065;-37
2021/07/01 10:07:55;;;;;;;2.45;1.00;;;;;;;25.36;36.14;100002.59;5073473;28;20403;-36
2021/07/01 10:10:22;;;;;;;1.23;0.90;;;;;;;25.39;35.93;100004.88;5072668;28;20486;-37
2021/07/01 10:12:59;;;;;;;1.10;0.88;;;;;;;25.40;35.91;100000.38;5073167;28;20120;-38
2021/07/01 10:15:36;;;;;;;0.82;0.75;;;;;;;25.41;35.89;100004.69;5072796;28;20040;-34
2021/07/01 10:18:17;;;;;;;0.73;0.73;;;;;;;25.39;36.11;100004.06;5073048;28;20449;-36
2021/07/01 10:20:58;;;;;;;1.33;0.98;;;;;;;25.41;35.85;99997.56;5072728;28;20499;-31
2021/07/01 10:23:27;;;;;;;1.13;0.90;;;;;;;25.35;36.01;99992.91;5072885;28;20053;-37
2021/07/01 10:25:56;;;;;;;4.53;1.20;;;;;;;25.36;36.09;99985.75;5072428;28;20507;-38
2021/07/01 10:28:25;;;;;;;1.02;0.93;;;;;;;25.43;35.80;99992.84;5072977;28;20051;-37
2021/07/01 10:31:13;;;;;;;1.63;0.80;;;;;;;25.43;35.74;99997.38;5072173;28;20071;-38
2021/07/01 10:33:42;;;;;;;1.45;0.95;;;;;;;25.40;35.75;99987.84;5072283;28;20048;-36
2021/07/01 10:36:20;;;;;;;1.70;0.75;;;;;;;25.34;35.97;99985.91;5072655;28;20040;-36
2021/07/01 10:38:52;;;;;;;2.53;1.30;;;;;;;25.45;35.76;99990.81;5072814;28;20390;-36
2021/07/01 10:41:33;;;;;;;1.08;0.93;;;;;;;25.43;36.06;99982.19;5072412;28;20486;-37
2021/07/01 10:44:02;;;;;;;0.75;0.70;;;;;;;25.39;35.97;99991.53;5057519;28;20406;-31
2021/07/01 10:46:43;;;;;;;1.38;0.85;;;;;;;25.40;35.91;99979.84;5073045;28;20045;-37
2021/07/01 10:49:14;;;;;;;1.77;0.90;;;;;;;25.43;35.65;99984.84;5075309;28;20053;-33
2021/07/01 10:51:54;;;;;;;1.45;0.80;;;;;;;25.45;35.59;99984.66;5076633;28;20044;-38
2021/07/01 10:54:21;;;;;;;1.00;0.90;;;;;;;25.41;35.85;99978.88;5076435;28;20056;-37
2021/07/01 10:57:08;;;;;;;0.85;0.80;;;;;;;25.33;35.99;99982.41;5058845;28;20165;-38
2021/07/01 10:59:47;;;;;;;2.60;1.20;;;;;;;25.37;35.77;99977.56;5076122;28;20041;-37
2021/07/01 11:02:39;;;;;;;3.75;1.58;;;;;;;25.42;35.70;99979.69;5076474;28;20055;-37
2021/07/01 11:05:33;;;;;;;1.30;0.80;;;;;;;25.41;35.65;99978.00;5075868;28;20033;-38
2021/07/01 11:08:04;;;;;;;1.20;0.90;;;;;;;25.36;35.84;99980.41;5076764;28;20056;-38
2021/07/01 11:10:37;;;;;;;1.85;0.80;;;;;;;25.37;35.90;99976.75;5076026;28;20037;-37
2021/07/01 11:13:07;;;;;;;1.70;1.00;;;;;;;25.39;35.62;99975.53;5076522;28;20379;-36
2021/07/01 11:16:03;;;;;;;0.75;0.75;;;;;;;25.39;35.69;99970.19;5076191;28;20044;-37
2021/07/01 11:18:39;;;;;;;1.13;1.02;;;;;;;25.40;35.62;99971.03;5076436;28;20040;-38
2021/07/01 11:21:15;;;;;;;1.67;1.15;;;;;;;25.38;35.71;99976.53;5076148;28;20086;-37
2021/07/01 11:23:44;;;;;;;1.65;0.98;;;;;;;25.41;35.54;99972.69;5076075;28;20048;-37
2021/07/01 11:26:31;;;;;;;1.60;0.98;;;;;;;25.43;35.56;99982.19;5075760;28;20049;-37
2021/07/01 11:29:09;;;;;;;3.97;1.95;;;;;;;25.43;35.47;99970.69;5069602;28;20045;-36
2021/07/01 11:31:54;;;;;;;1.10;1.00;;;;;;;25.39;35.55;99975.53;5075852;28;20098;-35
2021/07/01 11:34:21;;;;;;;1.60;1.02;;;;;;;25.37;35.68;99969.56;5075618;28;20552;-38
2021/07/01 11:36:53;;;;;;;1.55;1.00;;;;;;;25.35;35.90;99968.88;5075224;28;20401;-37
2021/07/01 11:39:28;;;;;;;1.17;1.05;;;;;;;25.40;35.61;99971.84;5075915;28;20052;-37
2021/07/01 11:41:58;;;;;;;3.05;1.20;;;;;;;25.41;35.53;99967.34;5075122;28;20086;-36
2021/07/01 11:44:28;;;;;;;2.65;1.13;;;;;;;25.40;35.38;99961.19;5075610;28;20049;-36
2021/07/01 11:46:56;;;;;;;2.03;1.55;;;;;;;25.42;35.46;99961.84;5075506;28;20040;-38
2021/07/01 11:49:25;;;;;;;1.10;0.88;;;;;;;25.41;35.34;99968.19;5075702;28;20059;-36
2021/07/01 11:51:52;;;;;;;1.15;0.90;;;;;;;25.40;35.33;99971.84;5075444;28;20041;-38
2021/07/01 11:54:20;;;;;;;0.88;0.70;;;;;;;25.37;35.69;99963.41;5075630;28;20055;-38
2021/07/01 11:56:53;;;;;;;1.85;1.10;;;;;;;25.44;35.38;99962.47;5075363;28;20078;-37